sensor_id;sensor_type;location;lat;lon;timestamp;P1;durP1;ratioP1;P2;durP2;ratioP2
5898;SDS011;2975;50.956;6.962;2023-02-28T00:02:14;4.80;;;2.50;;
5898;SDS011;2975;50.956;6.962;2023-02-28T00:04:42;2.70;;;1.80;;
5898;SDS011;2975;50.956;6.962;2023-02-28T00:07:08;5.10;;;1.87;;
5898;SDS011;2975;50.956;6.962;2023-02-28T00:09:34;4.07;;;2.10;;
5898;SDS011;2975;50.956;6.962;2023-02-28T00:12:00;3.50;;;2.10;;
5898;SDS011;2975;50.956;6.962;2023-02-28T00:14:34;2.50;;;2.03;;
5898;SDS011;2975;50.956;6.962;2023-02-28T00:17:00;4.70;;;2.40;;
5898;SDS011;2975;50.956;6.962;2023-02-28T00:19:26;3.13;;;2.23;;
5898;SDS011;2975;50.956;6.962;2023-02-28T00:21:52;6.30;;;2.03;;
5898;SDS011;2975;50.956;6.962;2023-02-28T00:24:17;3.93;;;1.60;;
5898;SDS011;2975;50.956;6.962;2023-02-28T00:26:43;2.37;;;2.07;;
5898;SDS011;2975;50.956;6.962;2023-02-28T00:29:09;2.50;;;1.93;;
5898;SDS011;2975;50.956;6.962;2023-02-28T00:31:35;5.60;;;2.10;;
5898;SDS011;2975;50.956;6.962;2023-02-28T00:34:00;3.30;;;1.60;;
5898;SDS011;2975;50.956;6.962;2023-02-28T00:36:26;2.53;;;1.60;;
5898;SDS011;2975;50.956;6.962;2023-02-28T00:38:52;4.13;;;1.70;;
5898;SDS011;2975;50.956;6.962;2023-02-28T00:41:17;3.37;;;1.77;;
5898;SDS011;2975;50.956;6.962;2023-02-28T00:43:43;4.43;;;1.47;;
5898;SDS011;2975;50.956;6.962;2023-02-28T00:46:09;3.97;;;2.00;;
5898;SDS011;2975;50.956;6.962;2023-02-28T00:48:34;2.73;;;1.60;;
5898;SDS011;2975;50.956;6.962;2023-02-28T00:51:00;2.47;;;1.70;;
5898;SDS011;2975;50.956;6.962;2023-02-28T00:53:27;2.70;;;1.80;;
5898;SDS011;2975;50.956;6.962;2023-02-28T00:55:53;3.10;;;1.53;;
5898;SDS011;2975;50.956;6.962;2023-02-28T00:58:18;3.13;;;1.90;;
5898;SDS011;2975;50.956;6.962;2023-02-28T01:00:44;3.83;;;1.90;;
5898;SDS011;2975;50.956;6.962;2023-02-28T01:03:13;2.00;;;1.50;;
5898;SDS011;2975;50.956;6.962;2023-02-28T01:05:43;2.20;;;1.70;;
5898;SDS011;2975;50.956;6.962;2023-02-28T01:08:09;1.83;;;1.50;;
5898;SDS011;2975;50.956;6.962;2023-02-28T01:10:34;4.07;;;1.93;;
5898;SDS011;2975;50.956;6.962;2023-02-28T01:13:01;3.87;;;1.70;;
5898;SDS011;2975;50.956;6.962;2023-02-28T01:15:27;3.03;;;1.73;;
5898;SDS011;2975;50.956;6.962;2023-02-28T01:17:53;2.57;;;1.80;;
5898;SDS011;2975;50.956;6.962;2023-02-28T01:20:19;5.97;;;2.00;;
5898;SDS011;2975;50.956;6.962;2023-02-28T01:22:45;5.43;;;1.70;;
5898;SDS011;2975;50.956;6.962;2023-02-28T01:25:11;3.47;;;1.60;;
5898;SDS011;2975;50.956;6.962;2023-02-28T01:27:37;6.00;;;2.00;;
5898;SDS011;2975;50.956;6.962;2023-02-28T01:30:04;6.10;;;1.83;;
5898;SDS011;2975;50.956;6.962;2023-02-28T01:32:31;2.17;;;1.80;;
5898;SDS011;2975;50.956;6.962;2023-02-28T01:34:56;2.17;;;1.90;;
5898;SDS011;2975;50.956;6.962;2023-02-28T01:37:22;3.13;;;2.03;;
5898;SDS011;2975;50.956;6.962;2023-02-28T01:39:48;2.67;;;1.70;;
5898;SDS011;2975;50.956;6.962;2023-02-28T01:42:13;2.57;;;1.80;;
5898;SDS011;2975;50.956;6.962;2023-02-28T01:44:57;3.47;;;1.90;;
5898;SDS011;2975;50.956;6.962;2023-02-28T01:47:39;3.00;;;1.70;;
5898;SDS011;2975;50.956;6.962;2023-02-28T01:50:09;4.80;;;1.87;;
5898;SDS011;2975;50.956;6.962;2023-02-28T01:52:39;3.27;;;1.80;;
5898;SDS011;2975;50.956;6.962;2023-02-28T01:55:07;3.03;;;1.60;;
5898;SDS011;2975;50.956;6.962;2023-02-28T01:57:36;3.03;;;1.80;;
5898;SDS011;2975;50.956;6.962;2023-02-28T02:00:07;2.37;;;1.83;;
5898;SDS011;2975;50.956;6.962;2023-02-28T02:02:35;2.07;;;1.63;;
5898;SDS011;2975;50.956;6.962;2023-02-28T02:05:09;2.00;;;1.73;;
5898;SDS011;2975;50.956;6.962;2023-02-28T02:07:39;1.63;;;1.40;;
5898;SDS011;2975;50.956;6.962;2023-02-28T02:15:38;2.37;;;1.87;;
5898;SDS011;2975;50.956;6.962;2023-02-28T02:26:50;4.03;;;1.80;;
5898;SDS011;2975;50.956;6.962;2023-02-28T02:32:19;1.87;;;1.57;;
5898;SDS011;2975;50.956;6.962;2023-02-28T02:38:02;3.03;;;1.50;;
5898;SDS011;2975;50.956;6.962;2023-02-28T02:41:17;4.50;;;2.10;;
5898;SDS011;2975;50.956;6.962;2023-02-28T02:43:58;1.80;;;1.60;;
5898;SDS011;2975;50.956;6.962;2023-02-28T02:46:31;3.80;;;1.60;;
5898;SDS011;2975;50.956;6.962;2023-02-28T02:49:00;2.47;;;1.80;;
5898;SDS011;2975;50.956;6.962;2023-02-28T02:51:29;4.63;;;1.70;;
5898;SDS011;2975;50.956;6.962;2023-02-28T02:53:58;3.53;;;1.77;;
5898;SDS011;2975;50.956;6.962;2023-02-28T02:56:55;3.20;;;1.80;;
5898;SDS011;2975;50.956;6.962;2023-02-28T02:59:23;4.00;;;1.60;;
5898;SDS011;2975;50.956;6.962;2023-02-28T03:01:55;1.70;;;1.60;;
5898;SDS011;2975;50.956;6.962;2023-02-28T03:04:25;2.50;;;1.67;;
5898;SDS011;2975;50.956;6.962;2023-02-28T03:06:55;2.63;;;1.50;;
5898;SDS011;2975;50.956;6.962;2023-02-28T03:09:24;6.43;;;2.03;;
5898;SDS011;2975;50.956;6.962;2023-02-28T03:11:52;2.60;;;1.43;;
5898;SDS011;2975;50.956;6.962;2023-02-28T03:17:11;4.07;;;1.77;;
5898;SDS011;2975;50.956;6.962;2023-02-28T03:20:01;3.97;;;1.50;;
5898;SDS011;2975;50.956;6.962;2023-02-28T03:30:49;2.83;;;1.80;;
5898;SDS011;2975;50.956;6.962;2023-02-28T03:33:23;3.13;;;1.90;;
5898;SDS011;2975;50.956;6.962;2023-02-28T03:35:54;3.53;;;1.60;;
5898;SDS011;2975;50.956;6.962;2023-02-28T03:41:10;2.43;;;1.60;;
5898;SDS011;2975;50.956;6.962;2023-02-28T03:43:38;2.10;;;1.40;;
5898;SDS011;2975;50.956;6.962;2023-02-28T03:46:09;1.77;;;1.50;;
5898;SDS011;2975;50.956;6.962;2023-02-28T03:51:09;1.40;;;1.30;;
5898;SDS011;2975;50.956;6.962;2023-02-28T03:53:42;2.77;;;1.57;;
5898;SDS011;2975;50.956;6.962;2023-02-28T03:56:19;2.07;;;1.50;;
5898;SDS011;2975;50.956;6.962;2023-02-28T03:58:53;4.27;;;1.80;;
5898;SDS011;2975;50.956;6.962;2023-02-28T04:01:30;1.70;;;1.60;;
5898;SDS011;2975;50.956;6.962;2023-02-28T04:04:03;1.70;;;1.40;;
5898;SDS011;2975;50.956;6.962;2023-02-28T04:06:30;1.73;;;1.63;;
5898;SDS011;2975;50.956;6.962;2023-02-28T04:08:57;3.67;;;1.80;;
5898;SDS011;2975;50.956;6.962;2023-02-28T04:11:35;2.60;;;1.70;;
5898;SDS011;2975;50.956;6.962;2023-02-28T04:14:03;2.40;;;1.70;;
5898;SDS011;2975;50.956;6.962;2023-02-28T04:16:30;3.20;;;2.10;;
5898;SDS011;2975;50.956;6.962;2023-02-28T04:18:57;3.87;;;2.27;;
5898;SDS011;2975;50.956;6.962;2023-02-28T04:21:30;4.63;;;2.10;;
5898;SDS011;2975;50.956;6.962;2023-02-28T04:23:56;3.23;;;2.20;;
5898;SDS011;2975;50.956;6.962;2023-02-28T04:26:25;2.17;;;1.63;;
5898;SDS011;2975;50.956;6.962;2023-02-28T04:28:54;2.87;;;2.07;;
5898;SDS011;2975;50.956;6.962;2023-02-28T04:31:20;4.40;;;1.90;;
5898;SDS011;2975;50.956;6.962;2023-02-28T04:33:46;4.47;;;1.80;;
5898;SDS011;2975;50.956;6.962;2023-02-28T04:36:11;2.23;;;1.80;;
5898;SDS011;2975;50.956;6.962;2023-02-28T04:38:39;2.47;;;1.90;;
5898;SDS011;2975;50.956;6.962;2023-02-28T04:41:05;3.83;;;2.30;;
5898;SDS011;2975;50.956;6.962;2023-02-28T04:43:31;3.30;;;1.97;;
5898;SDS011;2975;50.956;6.962;2023-02-28T04:45:58;3.57;;;2.10;;
5898;SDS011;2975;50.956;6.962;2023-02-28T04:48:29;4.73;;;2.03;;
5898;SDS011;2975;50.956;6.962;2023-02-28T04:51:00;3.10;;;1.97;;
5898;SDS011;2975;50.956;6.962;2023-02-28T04:53:27;5.63;;;2.03;;
5898;SDS011;2975;50.956;6.962;2023-02-28T04:55:54;3.40;;;2.13;;
5898;SDS011;2975;50.956;6.962;2023-02-28T04:58:20;2.53;;;2.30;;
5898;SDS011;2975;50.956;6.962;2023-02-28T05:00:47;2.23;;;2.03;;
5898;SDS011;2975;50.956;6.962;2023-02-28T05:03:13;3.60;;;2.30;;
5898;SDS011;2975;50.956;6.962;2023-02-28T05:05:39;2.87;;;2.00;;
5898;SDS011;2975;50.956;6.962;2023-02-28T05:08:04;2.27;;;2.00;;
5898;SDS011;2975;50.956;6.962;2023-02-28T05:10:30;3.40;;;2.07;;
5898;SDS011;2975;50.956;6.962;2023-02-28T05:12:56;3.93;;;2.10;;
5898;SDS011;2975;50.956;6.962;2023-02-28T05:15:21;3.07;;;1.80;;
5898;SDS011;2975;50.956;6.962;2023-02-28T05:17:47;2.20;;;1.90;;
5898;SDS011;2975;50.956;6.962;2023-02-28T05:20:13;2.50;;;2.07;;
5898;SDS011;2975;50.956;6.962;2023-02-28T05:22:39;4.07;;;1.93;;
5898;SDS011;2975;50.956;6.962;2023-02-28T05:25:05;3.07;;;2.23;;
5898;SDS011;2975;50.956;6.962;2023-02-28T05:27:31;2.43;;;1.90;;
5898;SDS011;2975;50.956;6.962;2023-02-28T05:29:57;1.40;;;1.30;;
5898;SDS011;2975;50.956;6.962;2023-02-28T05:32:24;4.03;;;1.80;;
5898;SDS011;2975;50.956;6.962;2023-02-28T05:34:49;2.40;;;1.97;;
5898;SDS011;2975;50.956;6.962;2023-02-28T05:37:15;2.70;;;2.03;;
5898;SDS011;2975;50.956;6.962;2023-02-28T05:39:42;4.77;;;2.17;;
5898;SDS011;2975;50.956;6.962;2023-02-28T05:42:07;1.77;;;1.67;;
5898;SDS011;2975;50.956;6.962;2023-02-28T05:44:34;5.70;;;2.03;;
5898;SDS011;2975;50.956;6.962;2023-02-28T05:47:00;2.60;;;1.80;;
5898;SDS011;2975;50.956;6.962;2023-02-28T05:49:26;3.47;;;1.97;;
5898;SDS011;2975;50.956;6.962;2023-02-28T05:51:51;2.40;;;1.70;;
5898;SDS011;2975;50.956;6.962;2023-02-28T05:54:17;3.00;;;1.60;;
5898;SDS011;2975;50.956;6.962;2023-02-28T05:56:42;2.07;;;1.67;;
5898;SDS011;2975;50.956;6.962;2023-02-28T05:59:10;3.50;;;1.53;;
5898;SDS011;2975;50.956;6.962;2023-02-28T06:01:40;2.40;;;1.67;;
5898;SDS011;2975;50.956;6.962;2023-02-28T06:04:16;1.50;;;1.40;;
5898;SDS011;2975;50.956;6.962;2023-02-28T06:06:46;1.87;;;1.73;;
5898;SDS011;2975;50.956;6.962;2023-02-28T06:09:13;2.00;;;1.60;;
5898;SDS011;2975;50.956;6.962;2023-02-28T06:11:39;2.70;;;1.80;;
5898;SDS011;2975;50.956;6.962;2023-02-28T06:14:05;3.43;;;1.60;;
5898;SDS011;2975;50.956;6.962;2023-02-28T06:16:32;1.57;;;1.40;;
5898;SDS011;2975;50.956;6.962;2023-02-28T06:19:00;2.10;;;1.73;;
5898;SDS011;2975;50.956;6.962;2023-02-28T06:21:28;3.63;;;2.10;;
5898;SDS011;2975;50.956;6.962;2023-02-28T06:23:54;1.97;;;1.70;;
5898;SDS011;2975;50.956;6.962;2023-02-28T06:26:20;1.80;;;1.67;;
5898;SDS011;2975;50.956;6.962;2023-02-28T06:28:46;5.03;;;1.60;;
5898;SDS011;2975;50.956;6.962;2023-02-28T06:31:14;3.30;;;1.73;;
5898;SDS011;2975;50.956;6.962;2023-02-28T06:33:42;1.70;;;1.60;;
5898;SDS011;2975;50.956;6.962;2023-02-28T06:36:08;1.90;;;1.80;;
5898;SDS011;2975;50.956;6.962;2023-02-28T06:38:35;6.43;;;2.23;;
5898;SDS011;2975;50.956;6.962;2023-02-28T06:41:02;2.83;;;2.03;;
5898;SDS011;2975;50.956;6.962;2023-02-28T06:43:29;3.63;;;2.10;;
5898;SDS011;2975;50.956;6.962;2023-02-28T06:45:57;2.03;;;1.83;;
5898;SDS011;2975;50.956;6.962;2023-02-28T06:48:25;1.77;;;1.60;;
5898;SDS011;2975;50.956;6.962;2023-02-28T06:50:52;2.53;;;1.63;;
5898;SDS011;2975;50.956;6.962;2023-02-28T06:53:25;4.90;;;1.80;;
5898;SDS011;2975;50.956;6.962;2023-02-28T06:55:51;3.63;;;2.10;;
5898;SDS011;2975;50.956;6.962;2023-02-28T06:58:17;3.57;;;2.00;;
5898;SDS011;2975;50.956;6.962;2023-02-28T07:00:44;3.00;;;2.20;;
5898;SDS011;2975;50.956;6.962;2023-02-28T07:03:10;1.83;;;1.60;;
5898;SDS011;2975;50.956;6.962;2023-02-28T07:05:37;5.27;;;1.90;;
5898;SDS011;2975;50.956;6.962;2023-02-28T07:08:04;2.03;;;1.87;;
5898;SDS011;2975;50.956;6.962;2023-02-28T07:10:31;3.30;;;1.97;;
5898;SDS011;2975;50.956;6.962;2023-02-28T07:12:58;4.83;;;1.73;;
5898;SDS011;2975;50.956;6.962;2023-02-28T07:15:24;1.70;;;1.50;;
5898;SDS011;2975;50.956;6.962;2023-02-28T07:17:50;1.83;;;1.70;;
5898;SDS011;2975;50.956;6.962;2023-02-28T07:20:16;3.23;;;1.63;;
5898;SDS011;2975;50.956;6.962;2023-02-28T07:22:42;2.83;;;1.90;;
5898;SDS011;2975;50.956;6.962;2023-02-28T07:25:08;2.53;;;1.80;;
5898;SDS011;2975;50.956;6.962;2023-02-28T07:27:33;3.83;;;1.80;;
5898;SDS011;2975;50.956;6.962;2023-02-28T07:29:59;1.77;;;1.67;;
5898;SDS011;2975;50.956;6.962;2023-02-28T07:32:26;3.63;;;1.97;;
5898;SDS011;2975;50.956;6.962;2023-02-28T07:34:52;3.40;;;1.87;;
5898;SDS011;2975;50.956;6.962;2023-02-28T07:37:18;5.27;;;1.80;;
5898;SDS011;2975;50.956;6.962;2023-02-28T07:39:44;1.90;;;1.70;;
5898;SDS011;2975;50.956;6.962;2023-02-28T07:42:10;2.27;;;1.60;;
5898;SDS011;2975;50.956;6.962;2023-02-28T07:44:37;1.70;;;1.60;;
5898;SDS011;2975;50.956;6.962;2023-02-28T07:47:09;2.47;;;1.77;;
5898;SDS011;2975;50.956;6.962;2023-02-28T07:49:35;3.20;;;2.00;;
5898;SDS011;2975;50.956;6.962;2023-02-28T07:52:02;1.87;;;1.77;;
5898;SDS011;2975;50.956;6.962;2023-02-28T07:54:28;4.70;;;1.70;;
5898;SDS011;2975;50.956;6.962;2023-02-28T07:56:54;2.67;;;1.70;;
5898;SDS011;2975;50.956;6.962;2023-02-28T07:59:19;3.17;;;1.50;;
5898;SDS011;2975;50.956;6.962;2023-02-28T08:01:45;2.00;;;1.80;;
5898;SDS011;2975;50.956;6.962;2023-02-28T08:04:11;3.70;;;1.83;;
5898;SDS011;2975;50.956;6.962;2023-02-28T08:06:36;4.33;;;1.90;;
5898;SDS011;2975;50.956;6.962;2023-02-28T08:09:02;2.53;;;1.53;;
5898;SDS011;2975;50.956;6.962;2023-02-28T08:11:28;1.77;;;1.47;;
5898;SDS011;2975;50.956;6.962;2023-02-28T08:13:54;1.53;;;1.43;;
5898;SDS011;2975;50.956;6.962;2023-02-28T08:16:19;2.73;;;1.67;;
5898;SDS011;2975;50.956;6.962;2023-02-28T08:18:47;1.50;;;1.40;;
5898;SDS011;2975;50.956;6.962;2023-02-28T08:21:14;2.07;;;1.60;;
5898;SDS011;2975;50.956;6.962;2023-02-28T08:23:40;2.20;;;1.57;;
5898;SDS011;2975;50.956;6.962;2023-02-28T08:26:06;2.00;;;1.80;;
5898;SDS011;2975;50.956;6.962;2023-02-28T08:28:31;1.73;;;1.63;;
5898;SDS011;2975;50.956;6.962;2023-02-28T08:30:57;3.13;;;1.33;;
5898;SDS011;2975;50.956;6.962;2023-02-28T08:33:23;1.40;;;1.30;;
5898;SDS011;2975;50.956;6.962;2023-02-28T08:35:55;1.63;;;1.53;;
5898;SDS011;2975;50.956;6.962;2023-02-28T08:38:22;2.53;;;1.50;;
5898;SDS011;2975;50.956;6.962;2023-02-28T08:40:48;2.73;;;1.63;;
5898;SDS011;2975;50.956;6.962;2023-02-28T08:43:13;1.40;;;1.30;;
5898;SDS011;2975;50.956;6.962;2023-02-28T08:45:39;3.47;;;1.50;;
5898;SDS011;2975;50.956;6.962;2023-02-28T08:48:05;1.27;;;1.17;;
5898;SDS011;2975;50.956;6.962;2023-02-28T08:50:31;2.73;;;1.13;;
5898;SDS011;2975;50.956;6.962;2023-02-28T08:52:56;3.67;;;1.20;;
5898;SDS011;2975;50.956;6.962;2023-02-28T08:55:23;1.27;;;1.10;;
5898;SDS011;2975;50.956;6.962;2023-02-28T08:57:48;1.80;;;1.30;;
5898;SDS011;2975;50.956;6.962;2023-02-28T09:00:14;1.17;;;1.07;;
5898;SDS011;2975;50.956;6.962;2023-02-28T09:02:40;2.00;;;1.03;;
5898;SDS011;2975;50.956;6.962;2023-02-28T09:05:07;1.77;;;1.10;;
5898;SDS011;2975;50.956;6.962;2023-02-28T09:07:33;1.33;;;1.00;;
5898;SDS011;2975;50.956;6.962;2023-02-28T09:09:59;1.20;;;1.10;;
5898;SDS011;2975;50.956;6.962;2023-02-28T09:12:25;2.07;;;1.40;;
5898;SDS011;2975;50.956;6.962;2023-02-28T09:14:51;1.33;;;1.30;;
5898;SDS011;2975;50.956;6.962;2023-02-28T09:17:17;1.73;;;1.30;;
5898;SDS011;2975;50.956;6.962;2023-02-28T09:19:43;1.90;;;1.20;;
5898;SDS011;2975;50.956;6.962;2023-02-28T09:22:09;2.77;;;1.27;;
5898;SDS011;2975;50.956;6.962;2023-02-28T09:24:36;1.40;;;1.30;;
5898;SDS011;2975;50.956;6.962;2023-02-28T09:27:03;1.57;;;1.47;;
5898;SDS011;2975;50.956;6.962;2023-02-28T09:29:29;1.50;;;1.40;;
5898;SDS011;2975;50.956;6.962;2023-02-28T09:31:56;1.97;;;1.30;;
5898;SDS011;2975;50.956;6.962;2023-02-28T09:34:23;1.60;;;1.30;;
5898;SDS011;2975;50.956;6.962;2023-02-28T09:36:49;3.20;;;1.33;;
5898;SDS011;2975;50.956;6.962;2023-02-28T09:39:19;3.13;;;1.47;;
5898;SDS011;2975;50.956;6.962;2023-02-28T09:41:49;1.40;;;1.30;;
5898;SDS011;2975;50.956;6.962;2023-02-28T09:44:38;2.23;;;1.63;;
5898;SDS011;2975;50.956;6.962;2023-02-28T09:47:50;2.43;;;1.20;;
5898;SDS011;2975;50.956;6.962;2023-02-28T09:50:21;2.83;;;1.93;;
5898;SDS011;2975;50.956;6.962;2023-02-28T09:52:51;9.57;;;1.50;;
5898;SDS011;2975;50.956;6.962;2023-02-28T09:57:44;2.07;;;1.20;;
5898;SDS011;2975;50.956;6.962;2023-02-28T10:05:59;1.30;;;1.20;;
5898;SDS011;2975;50.956;6.962;2023-02-28T10:08:55;1.30;;;1.20;;
5898;SDS011;2975;50.956;6.962;2023-02-28T10:11:28;1.10;;;1.00;;
5898;SDS011;2975;50.956;6.962;2023-02-28T10:14:05;2.10;;;1.37;;
5898;SDS011;2975;50.956;6.962;2023-02-28T10:24:39;1.80;;;1.40;;
5898;SDS011;2975;50.956;6.962;2023-02-28T10:27:15;1.33;;;1.23;;
5898;SDS011;2975;50.956;6.962;2023-02-28T10:29:44;2.73;;;1.10;;
5898;SDS011;2975;50.956;6.962;2023-02-28T10:32:13;2.47;;;1.20;;
5898;SDS011;2975;50.956;6.962;2023-02-28T10:34:44;1.30;;;1.20;;
5898;SDS011;2975;50.956;6.962;2023-02-28T10:37:16;1.27;;;1.17;;
5898;SDS011;2975;50.956;6.962;2023-02-28T10:39:45;1.80;;;1.67;;
5898;SDS011;2975;50.956;6.962;2023-02-28T10:45:11;1.67;;;1.23;;
5898;SDS011;2975;50.956;6.962;2023-02-28T10:47:41;1.40;;;1.30;;
5898;SDS011;2975;50.956;6.962;2023-02-28T10:50:31;1.37;;;1.27;;
5898;SDS011;2975;50.956;6.962;2023-02-28T11:06:46;1.67;;;1.40;;
5898;SDS011;2975;50.956;6.962;2023-02-28T11:09:18;2.30;;;1.50;;
5898;SDS011;2975;50.956;6.962;2023-02-28T11:11:51;1.83;;;1.40;;
5898;SDS011;2975;50.956;6.962;2023-02-28T11:14:21;5.27;;;1.60;;
5898;SDS011;2975;50.956;6.962;2023-02-28T11:16:50;1.30;;;1.20;;
5898;SDS011;2975;50.956;6.962;2023-02-28T11:19:22;1.93;;;1.30;;
5898;SDS011;2975;50.956;6.962;2023-02-28T11:21:53;1.73;;;1.30;;
5898;SDS011;2975;50.956;6.962;2023-02-28T11:24:24;2.17;;;1.43;;
5898;SDS011;2975;50.956;6.962;2023-02-28T11:26:53;2.37;;;1.50;;
5898;SDS011;2975;50.956;6.962;2023-02-28T11:29:24;1.53;;;1.30;;
5898;SDS011;2975;50.956;6.962;2023-02-28T11:34:38;4.10;;;1.40;;
5898;SDS011;2975;50.956;6.962;2023-02-28T11:37:05;1.67;;;1.30;;
5898;SDS011;2975;50.956;6.962;2023-02-28T11:39:35;1.40;;;1.30;;
5898;SDS011;2975;50.956;6.962;2023-02-28T11:47:38;4.43;;;1.70;;
5898;SDS011;2975;50.956;6.962;2023-02-28T11:52:57;2.80;;;1.60;;
5898;SDS011;2975;50.956;6.962;2023-02-28T12:03:54;2.40;;;1.60;;
5898;SDS011;2975;50.956;6.962;2023-02-28T12:13:01;2.60;;;1.70;;
5898;SDS011;2975;50.956;6.962;2023-02-28T12:20:34;1.70;;;1.50;;
5898;SDS011;2975;50.956;6.962;2023-02-28T12:25:59;1.70;;;1.53;;
5898;SDS011;2975;50.956;6.962;2023-02-28T12:28:27;1.70;;;1.60;;
5898;SDS011;2975;50.956;6.962;2023-02-28T12:31:04;2.27;;;1.70;;
5898;SDS011;2975;50.956;6.962;2023-02-28T12:33:36;2.60;;;1.70;;
5898;SDS011;2975;50.956;6.962;2023-02-28T12:36:09;3.60;;;1.80;;
5898;SDS011;2975;50.956;6.962;2023-02-28T12:38:56;2.17;;;1.70;;
5898;SDS011;2975;50.956;6.962;2023-02-28T12:41:33;1.53;;;1.43;;
5898;SDS011;2975;50.956;6.962;2023-02-28T12:44:06;1.87;;;1.67;;
5898;SDS011;2975;50.956;6.962;2023-02-28T12:46:41;2.83;;;1.53;;
5898;SDS011;2975;50.956;6.962;2023-02-28T12:49:10;1.80;;;1.70;;
5898;SDS011;2975;50.956;6.962;2023-02-28T12:51:40;2.33;;;2.13;;
5898;SDS011;2975;50.956;6.962;2023-02-28T12:54:09;1.80;;;1.70;;
5898;SDS011;2975;50.956;6.962;2023-02-28T13:04:41;1.70;;;1.60;;
5898;SDS011;2975;50.956;6.962;2023-02-28T13:08:04;2.47;;;1.90;;
5898;SDS011;2975;50.956;6.962;2023-02-28T13:10:22;2.57;;;1.63;;
5898;SDS011;2975;50.956;6.962;2023-02-28T13:12:52;4.20;;;2.10;;
5898;SDS011;2975;50.956;6.962;2023-02-28T13:15:24;2.97;;;1.70;;
5898;SDS011;2975;50.956;6.962;2023-02-28T13:17:53;2.63;;;2.00;;
5898;SDS011;2975;50.956;6.962;2023-02-28T13:20:27;2.27;;;2.07;;
5898;SDS011;2975;50.956;6.962;2023-02-28T13:22:59;2.27;;;2.00;;
5898;SDS011;2975;50.956;6.962;2023-02-28T13:28:11;2.50;;;1.90;;
5898;SDS011;2975;50.956;6.962;2023-02-28T13:38:42;2.53;;;2.27;;
5898;SDS011;2975;50.956;6.962;2023-02-28T13:46:31;3.63;;;1.93;;
5898;SDS011;2975;50.956;6.962;2023-02-28T13:57:42;2.67;;;1.93;;
5898;SDS011;2975;50.956;6.962;2023-02-28T14:00:35;2.30;;;2.10;;
5898;SDS011;2975;50.956;6.962;2023-02-28T14:06:08;3.40;;;1.90;;
5898;SDS011;2975;50.956;6.962;2023-02-28T14:08:38;2.57;;;2.23;;
5898;SDS011;2975;50.956;6.962;2023-02-28T14:11:29;2.23;;;1.97;;
5898;SDS011;2975;50.956;6.962;2023-02-28T14:14:00;2.43;;;1.90;;
5898;SDS011;2975;50.956;6.962;2023-02-28T14:16:27;2.37;;;2.13;;
5898;SDS011;2975;50.956;6.962;2023-02-28T14:19:27;3.33;;;1.97;;
5898;SDS011;2975;50.956;6.962;2023-02-28T14:33:22;2.43;;;2.23;;
5898;SDS011;2975;50.956;6.962;2023-02-28T14:41:19;4.80;;;2.10;;
5898;SDS011;2975;50.956;6.962;2023-02-28T14:43:56;3.87;;;2.00;;
5898;SDS011;2975;50.956;6.962;2023-02-28T14:46:25;4.53;;;2.37;;
5898;SDS011;2975;50.956;6.962;2023-02-28T14:49:17;2.30;;;2.10;;
5898;SDS011;2975;50.956;6.962;2023-02-28T14:51:49;3.37;;;2.30;;
5898;SDS011;2975;50.956;6.962;2023-02-28T14:54:26;2.07;;;1.87;;
5898;SDS011;2975;50.956;6.962;2023-02-28T14:56:52;4.07;;;2.00;;
5898;SDS011;2975;50.956;6.962;2023-02-28T14:59:23;3.43;;;2.10;;
5898;SDS011;2975;50.956;6.962;2023-02-28T15:01:51;4.40;;;2.03;;
5898;SDS011;2975;50.956;6.962;2023-02-28T15:04:25;2.93;;;2.03;;
5898;SDS011;2975;50.956;6.962;2023-02-28T15:07:12;2.30;;;1.90;;
5898;SDS011;2975;50.956;6.962;2023-02-28T15:09:39;3.13;;;2.33;;
5898;SDS011;2975;50.956;6.962;2023-02-28T15:12:05;5.10;;;2.10;;
5898;SDS011;2975;50.956;6.962;2023-02-28T15:14:31;3.87;;;2.10;;
5898;SDS011;2975;50.956;6.962;2023-02-28T15:17:01;2.20;;;2.00;;
5898;SDS011;2975;50.956;6.962;2023-02-28T15:19:31;4.40;;;2.30;;
5898;SDS011;2975;50.956;6.962;2023-02-28T15:22:01;4.03;;;2.53;;
5898;SDS011;2975;50.956;6.962;2023-02-28T15:24:41;4.70;;;2.33;;
5898;SDS011;2975;50.956;6.962;2023-02-28T15:27:14;2.43;;;1.87;;
5898;SDS011;2975;50.956;6.962;2023-02-28T15:29:47;2.60;;;2.17;;
5898;SDS011;2975;50.956;6.962;2023-02-28T15:34:54;5.37;;;2.43;;
5898;SDS011;2975;50.956;6.962;2023-02-28T15:37:37;4.93;;;2.23;;
5898;SDS011;2975;50.956;6.962;2023-02-28T15:42:42;2.47;;;1.90;;
5898;SDS011;2975;50.956;6.962;2023-02-28T15:45:29;2.73;;;2.40;;
5898;SDS011;2975;50.956;6.962;2023-02-28T15:48:02;2.73;;;2.13;;
5898;SDS011;2975;50.956;6.962;2023-02-28T15:50:28;3.57;;;2.27;;
5898;SDS011;2975;50.956;6.962;2023-02-28T15:52:54;2.97;;;2.33;;
5898;SDS011;2975;50.956;6.962;2023-02-28T15:55:21;3.17;;;2.23;;
5898;SDS011;2975;50.956;6.962;2023-02-28T15:57:55;3.23;;;2.20;;
5898;SDS011;2975;50.956;6.962;2023-02-28T16:00:25;2.87;;;2.17;;
5898;SDS011;2975;50.956;6.962;2023-02-28T16:02:52;3.30;;;2.07;;
5898;SDS011;2975;50.956;6.962;2023-02-28T16:05:20;2.40;;;2.20;;
5898;SDS011;2975;50.956;6.962;2023-02-28T16:07:56;2.87;;;2.30;;
5898;SDS011;2975;50.956;6.962;2023-02-28T16:10:24;2.53;;;2.07;;
5898;SDS011;2975;50.956;6.962;2023-02-28T16:12:52;3.07;;;2.03;;
5898;SDS011;2975;50.956;6.962;2023-02-28T16:15:20;3.47;;;2.20;;
5898;SDS011;2975;50.956;6.962;2023-02-28T16:17:49;3.00;;;2.20;;
5898;SDS011;2975;50.956;6.962;2023-02-28T16:20:25;3.73;;;2.17;;
5898;SDS011;2975;50.956;6.962;2023-02-28T16:22:53;2.50;;;2.20;;
5898;SDS011;2975;50.956;6.962;2023-02-28T16:25:20;2.77;;;2.10;;
5898;SDS011;2975;50.956;6.962;2023-02-28T16:27:54;2.17;;;1.97;;
5898;SDS011;2975;50.956;6.962;2023-02-28T16:30:27;3.23;;;2.47;;
5898;SDS011;2975;50.956;6.962;2023-02-28T16:32:56;2.70;;;2.50;;
5898;SDS011;2975;50.956;6.962;2023-02-28T16:35:22;3.33;;;2.40;;
5898;SDS011;2975;50.956;6.962;2023-02-28T16:37:50;2.37;;;2.17;;
5898;SDS011;2975;50.956;6.962;2023-02-28T16:40:19;2.10;;;1.90;;
5898;SDS011;2975;50.956;6.962;2023-02-28T16:42:51;3.53;;;1.70;;
5898;SDS011;2975;50.956;6.962;2023-02-28T16:45:22;4.70;;;2.13;;
5898;SDS011;2975;50.956;6.962;2023-02-28T16:47:50;4.80;;;2.17;;
5898;SDS011;2975;50.956;6.962;2023-02-28T16:50:21;3.27;;;1.70;;
5898;SDS011;2975;50.956;6.962;2023-02-28T16:52:48;2.70;;;1.90;;
5898;SDS011;2975;50.956;6.962;2023-02-28T16:55:14;3.23;;;2.00;;
5898;SDS011;2975;50.956;6.962;2023-02-28T16:57:40;2.40;;;1.90;;
5898;SDS011;2975;50.956;6.962;2023-02-28T17:00:08;5.57;;;2.30;;
5898;SDS011;2975;50.956;6.962;2023-02-28T17:02:37;3.43;;;1.90;;
5898;SDS011;2975;50.956;6.962;2023-02-28T17:05:03;3.87;;;2.63;;
5898;SDS011;2975;50.956;6.962;2023-02-28T17:07:29;4.37;;;1.90;;
5898;SDS011;2975;50.956;6.962;2023-02-28T17:09:55;2.67;;;1.90;;
5898;SDS011;2975;50.956;6.962;2023-02-28T17:12:20;3.70;;;2.00;;
5898;SDS011;2975;50.956;6.962;2023-02-28T17:14:46;2.53;;;1.70;;
5898;SDS011;2975;50.956;6.962;2023-02-28T17:17:18;2.17;;;1.90;;
5898;SDS011;2975;50.956;6.962;2023-02-28T17:19:46;4.67;;;1.90;;
5898;SDS011;2975;50.956;6.962;2023-02-28T17:22:12;2.97;;;2.10;;
5898;SDS011;2975;50.956;6.962;2023-02-28T17:24:38;2.47;;;1.60;;
5898;SDS011;2975;50.956;6.962;2023-02-28T17:27:04;3.87;;;2.20;;
5898;SDS011;2975;50.956;6.962;2023-02-28T17:29:30;2.77;;;1.90;;
5898;SDS011;2975;50.956;6.962;2023-02-28T17:31:55;2.50;;;2.30;;
5898;SDS011;2975;50.956;6.962;2023-02-28T17:34:21;1.83;;;1.73;;
5898;SDS011;2975;50.956;6.962;2023-02-28T17:36:49;6.03;;;2.10;;
5898;SDS011;2975;50.956;6.962;2023-02-28T17:39:16;4.30;;;1.80;;
5898;SDS011;2975;50.956;6.962;2023-02-28T17:41:48;3.43;;;2.07;;
5898;SDS011;2975;50.956;6.962;2023-02-28T17:44:18;3.30;;;2.53;;
5898;SDS011;2975;50.956;6.962;2023-02-28T17:46:45;3.40;;;2.03;;
5898;SDS011;2975;50.956;6.962;2023-02-28T17:49:11;2.33;;;1.80;;
5898;SDS011;2975;50.956;6.962;2023-02-28T17:51:37;2.87;;;2.10;;
5898;SDS011;2975;50.956;6.962;2023-02-28T17:54:02;3.60;;;2.27;;
5898;SDS011;2975;50.956;6.962;2023-02-28T17:56:28;3.43;;;2.40;;
5898;SDS011;2975;50.956;6.962;2023-02-28T17:58:54;4.40;;;2.30;;
5898;SDS011;2975;50.956;6.962;2023-02-28T18:01:21;2.33;;;1.90;;
5898;SDS011;2975;50.956;6.962;2023-02-28T18:03:47;2.20;;;2.00;;
5898;SDS011;2975;50.956;6.962;2023-02-28T18:06:21;4.53;;;2.83;;
5898;SDS011;2975;50.956;6.962;2023-02-28T18:08:49;3.50;;;2.73;;
5898;SDS011;2975;50.956;6.962;2023-02-28T18:11:18;3.57;;;2.63;;